Time;durP1;ratioP1;P1;durP2;ratioP2;P2;SDS_P1;SDS_P2;PMS_P1;PMS_P2;Temp;Humidity;BMP_temperature;BMP_pressure;BME280_temperature;BME280_humidity;BME280_pressure;Samples;Min_cycle;Max_cycle;Signal;HPM_P1;HPM_P2
2023/10/25 00:01:52;;;;;;;3.70;2.10;;;11.00;99.90;;;12.75;67.38;96564.16;5012876;28;20042;-49
2023/10/25 00:04:19;;;;;;;3.25;1.60;;;10.90;99.90;;;12.78;67.35;96569.94;5012999;28;20172;-49
2023/10/25 00:06:47;;;;;;;3.55;2.20;;;10.90;99.90;;;12.76;67.44;96558.63;5011907;28;20053;-49
2023/10/25 00:09:15;;;;;;;2.97;1.88;;;10.90;99.90;;;12.77;67.38;96554.91;5012246;28;20044;-51
2023/10/25 00:11:42;;;;;;;3.17;2.30;;;10.90;99.90;;;12.74;67.33;96544.66;5013095;28;20415;-49
2023/10/25 00:14:10;;;;;;;4.82;2.25;;;10.90;99.90;;;12.69;67.29;96552.44;5012166;28;20046;-49
2023/10/25 00:16:38;;;;;;;3.83;2.45;;;10.80;99.90;;;12.61;67.31;96542.75;5012456;28;20528;-49
2023/10/25 00:19:05;;;;;;;5.28;2.30;;;10.60;99.90;;;12.59;67.33;96544.00;5012439;28;20105;-47
2023/10/25 00:21:33;;;;;;;3.00;2.28;;;10.60;99.90;;;12.56;67.35;96547.03;5012409;28;20425;-49
2023/10/25 00:24:01;;;;;;;5.07;2.42;;;10.60;99.90;;;12.58;67.12;96545.00;5012394;28;20049;-48
2023/10/25 00:26:28;;;;;;;2.50;2.20;;;10.70;99.90;;;12.58;67.32;96547.66;5010993;28;20056;-49
2023/10/25 00:28:58;;;;;;;4.18;2.65;;;10.60;99.90;;;12.58;67.39;96532.50;5011992;28;20038;-51
2023/10/25 00:31:26;;;;;;;4.45;3.20;;;10.70;99.90;;;12.57;67.31;96530.84;5012539;28;20046;-47
2023/10/25 00:33:55;;;;;;;4.93;3.03;;;10.60;99.90;;;12.54;67.26;96543.75;5010901;28;20281;-52
2023/10/25 00:36:23;;;;;;;2.93;2.63;;;10.60;99.90;;;12.54;67.35;96541.09;5012029;28;20409;-49
2023/10/25 00:38:50;;;;;;;3.67;2.78;;;10.60;99.90;;;12.55;67.52;96535.56;5010819;28;20050;-49
2023/10/25 00:41:18;;;;;;;3.75;2.50;;;10.60;99.90;;;12.57;67.73;96536.19;5010830;28;20147;-49
2023/10/25 00:43:45;;;;;;;3.13;2.63;;;10.70;99.90;;;12.59;67.61;96526.13;5010714;28;20057;-48
2023/10/25 00:46:19;;;;;;;3.92;2.70;;;10.80;99.90;;;12.62;67.52;96538.25;5009786;28;20274;-51
2023/10/25 00:48:48;;;;;;;3.33;2.90;;;10.80;99.90;;;12.63;67.43;96533.72;5010154;28;20050;-50
2023/10/25 00:51:19;;;;;;;3.23;2.63;;;10.80;99.90;;;12.63;67.32;96526.53;5002719;28;20072;-47
2023/10/25 00:53:51;;;;;;;3.87;2.67;;;10.80;99.90;;;12.65;67.40;96529.84;5010457;28;20042;-49
2023/10/25 00:56:23;;;;;;;4.00;2.30;;;10.80;99.90;;;12.65;67.22;96529.00;5011078;28;20044;-51
2023/10/25 00:58:56;;;;;;;3.23;2.60;;;10.80;99.90;;;12.64;67.48;96532.69;5010864;28;20053;-47
2023/10/25 01:01:27;;;;;;;4.68;2.92;;;10.80;99.90;;;12.62;67.41;96530.25;5010435;28;20506;-50
2023/10/25 01:03:55;;;;;;;3.90;2.63;;;10.70;99.90;;;12.57;67.55;96530.84;5011683;28;20079;-52
2023/10/25 01:06:23;;;;;;;4.15;2.50;;;10.70;99.90;;;12.57;67.43;96533.50;5010968;28;20050;-49
2023/10/25 01:08:51;;;;;;;6.57;3.30;;;10.70;99.90;;;12.56;67.71;96533.69;5011599;28;20410;-52
2023/10/25 01:11:19;;;;;;;2.65;2.00;;;10.60;99.90;;;12.53;67.55;96540.28;5010249;28;20421;-51
2023/10/25 01:13:47;;;;;;;3.95;2.88;;;10.60;99.90;;;12.50;67.88;96538.00;5018658;28;20042;-48
2023/10/25 01:16:14;;;;;;;4.72;2.83;;;10.60;99.90;;;12.51;67.88;96530.81;5011508;28;20046;-53
2023/10/25 01:18:42;;;;;;;4.37;3.17;;;10.60;99.90;;;12.51;67.78;96538.84;5018358;28;20046;-48
2023/10/25 01:21:10;;;;;;;3.70;2.80;;;10.60;99.90;;;12.49;67.55;96541.69;5010864;28;20060;-53
2023/10/25 01:23:37;;;;;;;4.28;2.70;;;10.60;99.90;;;12.44;67.64;96537.97;5010736;28;20050;-49
2023/10/25 01:26:05;;;;;;;5.90;3.00;;;10.50;99.90;;;12.31;67.69;96547.59;5010915;28;20045;-48
2023/10/25 01:28:33;;;;;;;3.95;3.05;;;10.40;99.90;;;12.27;67.80;96542.84;4993852;28;20491;-53
2023/10/25 01:31:01;;;;;;;3.90;2.90;;;10.30;99.90;;;12.26;67.99;96538.53;5010132;28;20042;-52
2023/10/25 01:33:29;;;;;;;4.50;3.40;;;10.30;99.90;;;12.25;67.86;96539.53;5010735;28;20073;-50
2023/10/25 01:35:57;;;;;;;4.23;2.90;;;10.30;99.90;;;12.22;67.88;96543.44;5010738;28;20053;-47
2023/10/25 01:38:24;;;;;;;4.93;2.80;;;10.30;99.90;;;12.15;67.92;96543.38;5010004;28;20042;-49
2023/10/25 01:40:52;;;;;;;5.07;3.47;;;10.30;99.90;;;12.09;68.40;96541.53;5011032;28;20045;-51
2023/10/25 01:43:20;;;;;;;4.43;3.70;;;10.30;99.90;;;12.08;68.39;96553.22;5010479;28;20057;-50
2023/10/25 01:45:50;;;;;;;5.47;4.43;;;10.30;99.90;;;12.07;68.76;96542.75;5010763;28;20069;-53
2023/10/25 01:48:17;;;;;;;5.45;3.88;;;10.30;99.90;;;12.10;68.43;96545.03;5002290;28;20176;-51
2023/10/25 01:50:45;;;;;;;5.17;4.07;;;10.30;99.90;;;12.12;68.57;96537.66;5009640;28;20057;-52
2023/10/25 01:53:12;;;;;;;4.80;3.50;;;10.30;99.90;;;12.09;68.48;96538.84;5011450;28;20516;-50
2023/10/25 01:55:40;;;;;;;5.53;4.33;;;10.30;99.90;;;11.98;69.07;96536.72;5009860;28;20386;-50
2023/10/25 01:58:08;;;;;;;4.90;3.83;;;10.20;99.90;;;11.99;68.90;96531.22;5010174;28;20368;-52
2023/10/25 02:00:39;;;;;;;4.95;3.28;;;10.20;99.90;;;12.01;68.90;96536.34;5010884;28;20056;-53
2023/10/25 02:03:07;;;;;;;7.63;4.45;;;10.20;99.90;;;12.06;69.12;96527.75;5002305;28;20049;-51
2023/10/25 02:05:35;;;;;;;6.20;4.75;;;10.30;99.90;;;12.11;68.91;96522.66;5011298;28;20509;-49
2023/10/25 02:08:03;;;;;;;8.70;5.23;;;10.40;99.90;;;12.14;69.16;96524.94;5010088;28;20069;-53
2023/10/25 02:10:30;;;;;;;7.17;4.80;;;10.40;99.90;;;12.16;68.82;96522.91;5010236;28;20051;-52
2023/10/25 02:12:58;;;;;;;8.57;5.40;;;10.40;99.90;;;12.19;68.83;96522.47;5009209;28;20061;-50
2023/10/25 02:15:27;;;;;;;6.18;4.53;;;10.40;99.90;;;12.19;68.63;96517.13;5010507;28;20045;-49
2023/10/25 02:17:55;;;;;;;6.63;5.03;;;10.40;99.90;;;12.18;68.71;96515.50;5017664;28;20516;-50
2023/10/25 02:20:23;;;;;;;6.60;4.63;;;10.40;99.90;;;12.16;68.81;96507.69;5010128;28;20064;-51
2023/10/25 02:22:50;;;;;;;6.87;5.10;;;10.30;99.90;;;12.15;68.62;96503.38;5009033;28;20057;-51
2023/10/25 02:25:18;;;;;;;5.78;4.38;;;10.30;99.90;;;12.13;68.62;96510.75;5011114;28;20435;-53
2023/10/25 02:27:46;;;;;;;6.27;4.73;;;10.30;99.90;;;12.13;68.54;96496.59;5009571;28;20064;-53
2023/10/25 02:30:14;;;;;;;6.95;4.78;;;10.30;99.90;;;12.09;68.93;96498.03;5008700;28;20061;-53
2023/10/25 02:32:41;;;;;;;6.63;5.60;;;10.30;99.90;;;12.08;68.86;96501.69;5011149;28;20050;-51
2023/10/25 02:35:09;;;;;;;6.13;5.30;;;10.30;99.90;;;12.08;68.98;96504.38;5009501;28;20053;-48
2023/10/25 02:37:37;;;;;;;6.57;5.13;;;10.30;99.90;;;12.09;68.91;96490.84;5010943;28;20435;-52
2023/10/25 02:40:06;;;;;;;5.35;4.47;;;10.30;99.90;;;12.09;68.86;96482.81;5013417;28;20497;-48
2023/10/25 02:42:35;;;;;;;6.80;4.77;;;10.30;99.90;;;12.03;68.93;96486.28;5014213;28;20076;-50
2023/10/25 02:45:03;;;;;;;6.00;4.80;;;10.30;99.90;;;12.07;69.01;96490.22;5013310;28;20062;-53
2023/10/25 02:47:30;;;;;;;6.40;5.10;;;10.30;99.90;;;12.09;69.00;96484.69;5013138;28;20054;-47
2023/10/25 02:49:58;;;;;;;5.93;4.50;;;10.30;99.90;;;12.12;69.13;96490.44;5013030;28;20119;-49
2023/10/25 02:52:26;;;;;;;5.90;4.53;;;10.30;99.90;;;12.12;68.69;96489.63;5014396;28;20041;-49
2023/10/25 02:54:55;;;;;;;5.90;4.80;;;10.30;99.90;;;12.12;68.91;96478.97;5014158;28;20042;-51
2023/10/25 02:57:22;;;;;;;5.50;4.80;;;10.30;99.90;;;12.13;68.91;96468.06;5013839;28;20045;-51
2023/10/25 02:59:51;;;;;;;6.93;4.47;;;10.30;99.90;;;12.18;68.88;96470.97;5013033;28;20112;-49
2023/10/25 03:02:19;;;;;;;5.87;4.93;;;10.40;99.90;;;12.20;68.60;96463.59;5014006;28;20042;-50
2023/10/25 03:04:48;;;;;;;5.13;4.17;;;10.40;99.90;;;12.23;68.63;96457.00;5020954;28;20046;-52
2023/10/25 03:07:16;;;;;;;6.57;5.00;;;10.40;99.90;;;12.23;68.78;96451.69;5013823;28;20066;-50
2023/10/25 03:09:43;;;;;;;4.50;3.88;;;10.40;99.90;;;12.23;68.53;96453.53;5013089;28;20106;-50
2023/10/25 03:12:11;;;;;;;4.23;3.40;;;10.40;99.90;;;12.23;68.66;96451.69;5012430;28;20046;-50
2023/10/25 03:14:39;;;;;;;4.50;3.40;;;10.40;99.90;;;12.20;68.20;96444.09;5012794;28;20057;-51
2023/10/25 03:17:06;;;;;;;3.80;2.92;;;10.40;99.90;;;12.16;68.50;96440.19;5012074;28;20046;-49
2023/10/25 03:19:34;;;;;;;4.93;2.93;;;10.30;99.90;;;12.19;68.33;96440.63;5011600;28;20049;-49
2023/10/25 03:22:03;;;;;;;4.00;3.10;;;10.40;99.90;;;12.22;68.55;96428.72;5013673;28;20049;-48
2023/10/25 03:24:30;;;;;;;3.73;3.30;;;10.40;99.90;;;12.21;68.39;96435.03;5013715;28;20064;-52
2023/10/25 03:26:59;;;;;;;5.60;4.00;;;10.40;99.90;;;12.18;68.45;96440.81;5012639;28;20038;-49
2023/10/25 03:29:26;;;;;;;5.00;3.53;;;10.40;99.90;;;12.17;68.41;96433.81;5011762;28;20386;-51
2023/10/25 03:31:58;;;;;;;4.20;2.90;;;10.40;99.90;;;12.18;68.22;96438.94;5013436;28;20069;-48
2023/10/25 03:34:25;;;;;;;2.55;2.25;;;10.40;99.90;;;12.19;68.56;96435.28;5011994;28;20530;-49
2023/10/25 03:36:53;;;;;;;2.00;1.60;;;10.50;99.90;;;12.23;68.56;96435.66;5011379;28;20057;-52
2023/10/25 03:39:22;;;;;;;1.95;1.50;;;10.50;99.90;;;12.28;68.52;96427.91;5012148;28;20050;-48
2023/10/25 03:41:49;;;;;;;6.15;3.03;;;10.60;99.90;;;12.33;68.26;96435.28;5013044;28;20050;-51
2023/10/25 03:44:17;;;;;;;6.90;3.57;;;10.60;99.90;;;12.31;68.03;96432.84;5012842;28;20050;-48
2023/10/25 03:46:45;;;;;;;4.15;2.85;;;10.60;99.90;;;12.33;68.23;96432.63;5010212;28;20744;-51
2023/10/25 03:49:13;;;;;;;7.57;4.10;;;10.60;99.90;;;12.37;68.12;96425.88;5010242;28;20053;-48
2023/10/25 03:51:40;;;;;;;10.95;6.05;;;10.60;99.90;;;12.41;68.06;96427.94;5011779;28;20045;-51
2023/10/25 03:54:08;;;;;;;8.98;5.00;;;10.70;99.90;;;12.45;68.01;96422.19;5012546;28;20058;-52
2023/10/25 03:56:35;;;;;;;4.60;2.83;;;10.70;99.90;;;12.46;67.90;96416.63;5012982;28;20038;-52
2023/10/25 03:59:03;;;;;;;3.70;2.75;;;10.70;99.90;;;12.46;67.52;96418.50;5012659;28;20041;-48
2023/10/25 04:01:31;;;;;;;3.53;2.80;;;10.60;99.90;;;12.47;67.58;96422.81;5013036;28;20056;-49
2023/10/25 04:03:58;;;;;;;3.08;2.53;;;10.60;99.90;;;12.50;67.63;96414.38;5012714;28;20042;-52
2023/10/25 04:06:26;;;;;;;3.90;2.77;;;10.70;99.90;;;12.53;67.73;96419.31;5012841;28;20046;-49
2023/10/25 04:08:54;;;;;;;3.50;2.63;;;10.80;99.90;;;12.54;67.41;96423.63;5012690;28;20045;-50
2023/10/25 04:11:22;;;;;;;3.63;2.97;;;10.80;99.90;;;12.49;67.40;96418.91;5012525;28;20042;-52
2023/10/25 04:13:49;;;;;;;3.38;2.67;;;10.80;99.90;;;12.44;67.37;96415.19;5012677;28;20045;-52
2023/10/25 04:16:17;;;;;;;5.57;3.63;;;10.80;99.90;;;12.42;67.37;96410.06;5012516;28;20419;-49
2023/10/25 04:18:45;;;;;;;5.10;3.58;;;10.80;99.90;;;12.36;67.60;96416.22;5012738;28;20178;-49
2023/10/25 04:21:13;;;;;;;3.90;3.10;;;10.60;99.90;;;12.29;67.09;96408.22;5012225;28;20046;-53
2023/10/25 04:23:41;;;;;;;5.50;3.77;;;10.50;99.90;;;12.24;67.11;96410.66;5012496;28;20045;-51
2023/10/25 04:26:12;;;;;;;4.80;3.50;;;10.40;99.90;;;12.18;67.23;96401.59;5012217;28;20049;-49
2023/10/25 04:28:42;;;;;;;4.67;3.67;;;10.40;99.90;;;12.11;67.23;96398.09;5012500;28;20057;-51
2023/10/25 04:31:11;;;;;;;4.43;3.67;;;10.40;99.90;;;12.12;67.46;96393.59;5011841;28;20042;-48
2023/10/25 04:33:40;;;;;;;5.97;4.00;;;10.40;99.90;;;12.11;67.60;96397.28;5012708;28;20034;-50
2023/10/25 04:36:08;;;;;;;5.37;3.90;;;10.40;99.90;;;12.09;67.40;96394.78;5011056;28;20045;-48
2023/10/25 04:38:35;;;;;;;6.00;4.10;;;10.40;99.90;;;12.08;67.30;96392.31;5012009;28;20038;-47
2023/10/25 04:41:03;;;;;;;4.27;3.60;;;10.40;99.90;;;12.07;67.33;96390.69;5011942;28;20049;-49
2023/10/25 04:43:31;;;;;;;5.83;3.63;;;10.40;99.90;;;12.02;67.17;96381.47;5011135;28;20057;-50
2023/10/25 04:45:59;;;;;;;4.90;2.90;;;10.40;99.90;;;12.02;67.16;96372.63;5011931;28;20042;-53
2023/10/25 04:48:27;;;;;;;3.85;3.45;;;10.30;99.90;;;12.00;67.08;96367.50;5019083;28;20113;-49
2023/10/25 04:50:55;;;;;;;4.13;3.20;;;10.30;99.90;;;12.00;67.05;96372.03;5010967;28;20714;-53
2023/10/25 04:53:23;;;;;;;6.87;3.10;;;10.30;99.90;;;11.98;67.22;96371.38;5004222;28;20493;-53
2023/10/25 04:55:50;;;;;;;5.57;2.67;;;10.30;99.90;;;11.94;66.87;96368.31;5010880;28;20068;-49
2023/10/25 04:58:19;;;;;;;3.20;2.50;;;10.20;99.90;;;11.92;66.83;96369.50;5011928;28;20394;-53
2023/10/25 05:00:47;;;;;;;3.90;2.90;;;10.20;99.90;;;11.89;67.01;96364.56;5010978;28;20417;-54
2023/10/25 05:03:14;;;;;;;6.57;2.90;;;10.00;99.90;;;11.85;67.03;96358.00;5011552;28;20058;-51
2023/10/25 05:05:42;;;;;;;6.10;3.20;;;10.00;99.90;;;11.80;66.76;96356.72;5011988;28;20052;-53
2023/10/25 05:08:11;;;;;;;5.32;2.80;;;10.00;99.90;;;11.77;67.01;96361.66;5011559;28;20061;-47
2023/10/25 05:10:38;;;;;;;3.03;2.50;;;10.00;99.90;;;11.77;66.97;96351.00;5011281;28;20057;-50
2023/10/25 05:13:07;;;;;;;4.97;2.80;;;10.00;99.90;;;11.73;66.72;96344.38;5011840;28;20042;-50
2023/10/25 05:15:35;;;;;;;4.83;2.87;;;10.10;99.90;;;11.70;66.60;96342.13;5011660;28;20042;-51
2023/10/25 05:18:04;;;;;;;3.70;2.60;;;10.10;99.90;;;11.68;66.92;96336.19;5011637;28;20521;-49
2023/10/25 05:20:32;;;;;;;3.67;2.40;;;10.10;99.90;;;11.63;67.03;96336.78;5011787;28;20056;-49
2023/10/25 05:23:02;;;;;;;3.17;2.23;;;10.00;99.90;;;11.62;67.11;96335.13;5011573;28;20049;-49
2023/10/25 05:25:31;;;;;;;4.43;2.57;;;10.00;99.90;;;11.61;67.21;96328.16;5018378;28;20042;-50
2023/10/25 05:28:01;;;;;;;3.93;2.77;;;10.00;99.90;;;11.59;67.14;96333.72;5009632;28;20046;-50
2023/10/25 05:30:29;;;;;;;4.00;2.73;;;10.00;99.90;;;11.56;66.87;96325.28;5011312;28;20560;-52
2023/10/25 05:33:02;;;;;;;3.77;2.73;;;9.90;99.90;;;11.57;66.88;96327.75;5011440;28;20386;-54
2023/10/25 05:35:30;;;;;;;4.45;2.97;;;9.90;99.90;;;11.59;66.97;96325.72;5011619;28;20042;-53
2023/10/25 05:37:59;;;;;;;4.30;3.30;;;10.00;99.90;;;11.59;66.84;96317.72;5011365;28;20038;-52
2023/10/25 05:40:27;;;;;;;4.63;3.13;;;9.90;99.90;;;11.58;67.07;96312.56;5011234;28;20061;-52
2023/10/25 05:42:57;;;;;;;5.37;3.23;;;9.80;99.90;;;11.55;66.93;96316.44;5011198;28;20046;-49
2023/10/25 05:45:25;;;;;;;5.23;4.13;;;9.90;99.90;;;11.51;66.86;96317.06;5011372;28;20046;-52
2023/10/25 05:47:54;;;;;;;5.30;4.20;;;9.90;99.90;;;11.48;67.09;96322.78;5011370;28;20046;-50
2023/10/25 05:50:22;;;;;;;5.93;3.93;;;9.80;99.90;;;11.50;67.27;96328.75;5011386;28;20050;-48
2023/10/25 05:52:50;;;;;;;6.03;4.40;;;9.80;99.90;;;11.46;67.22;96317.66;5010553;28;20042;-51
2023/10/25 05:55:18;;;;;;;5.87;4.50;;;9.80;99.90;;;11.42;67.25;96319.09;5011133;28;20498;-50
2023/10/25 05:57:46;;;;;;;5.50;4.40;;;9.70;99.90;;;11.41;67.28;96322.75;5011205;28;20045;-51
2023/10/25 06:00:15;;;;;;;6.33;4.63;;;9.60;99.90;;;11.37;67.01;96318.84;5010916;28;20398;-52
2023/10/25 06:02:44;;;;;;;6.77;5.13;;;9.60;99.90;;;11.30;67.49;96325.97;5011182;28;20046;-49
2023/10/25 06:05:13;;;;;;;7.20;4.80;;;9.50;99.90;;;11.20;67.68;96321.00;5011083;28;20054;-52
2023/10/25 06:07:42;;;;;;;8.57;5.50;;;9.40;99.90;;;11.13;67.86;96317.50;5010916;28;20049;-52
2023/10/25 06:10:10;;;;;;;7.80;5.60;;;9.40;99.90;;;11.19;67.56;96303.41;5010872;28;20413;-52
2023/10/25 06:12:40;;;;;;;7.97;5.30;;;9.40;99.90;;;11.21;67.43;96302.19;5012283;28;20042;-48
2023/10/25 06:15:10;;;;;;;7.50;6.23;;;9.40;99.90;;;11.24;67.55;96298.28;5014901;28;20046;-51
2023/10/25 06:17:38;;;;;;;8.87;5.73;;;9.50;99.90;;;11.24;67.81;96290.28;5014753;28;20038;-51
2023/10/25 06:20:06;;;;;;;7.63;5.80;;;9.50;99.90;;;11.28;67.87;96282.72;5021218;28;20042;-50
2023/10/25 06:22:34;;;;;;;8.43;6.03;;;9.50;99.90;;;11.27;67.69;96273.91;5014829;28;20420;-48
2023/10/25 06:25:04;;;;;;;8.50;6.17;;;9.50;99.90;;;11.31;67.58;96274.34;5014543;28;20042;-49
2023/10/25 06:27:32;;;;;;;11.17;6.50;;;9.60;99.90;;;11.33;68.11;96293.63;5006960;28;20394;-51
2023/10/25 06:30:00;;;;;;;8.00;6.17;;;9.70;99.90;;;11.34;67.85;96280.09;5013708;28;20046;-48
2023/10/25 06:32:28;;;;;;;8.00;5.83;;;9.80;99.90;;;11.31;68.07;96282.34;5014319;28;20385;-53
2023/10/25 06:34:55;;;;;;;7.27;5.60;;;9.80;99.90;;;11.31;68.10;96277.81;5014621;28;20042;-48
2023/10/25 06:37:23;;;;;;;9.00;6.63;;;9.80;99.90;;;11.35;67.63;96270.25;5005227;28;20509;-51
2023/10/25 06:39:52;;;;;;;7.57;5.60;;;9.80;99.90;;;11.36;67.99;96280.72;5014416;28;20041;-48
2023/10/25 06:42:19;;;;;;;8.60;6.20;;;9.90;99.90;;;11.36;67.70;96274.56;5014196;28;20118;-52
2023/10/25 06:44:47;;;;;;;8.10;5.80;;;9.80;99.90;;;11.35;68.06;96270.25;5014396;28;20057;-52
2023/10/25 06:47:15;;;;;;;7.43;5.53;;;9.80;99.90;;;11.36;68.01;96272.72;5014134;28;20046;-49
2023/10/25 06:49:43;;;;;;;7.07;5.40;;;9.80;99.90;;;11.38;67.92;96265.38;5010198;28;20045;-49
2023/10/25 06:52:11;;;;;;;7.33;5.30;;;9.90;99.90;;;11.45;68.21;96260.03;5014156;28;20050;-52
2023/10/25 06:54:39;;;;;;;7.03;5.18;;;10.00;99.90;;;11.50;68.12;96260.28;5014278;28;20514;-50
2023/10/25 06:57:09;;;;;;;7.30;5.80;;;10.00;99.90;;;11.53;67.97;96259.03;5014062;28;20045;-51
2023/10/25 06:59:37;;;;;;;6.43;4.53;;;10.00;99.90;;;11.57;67.91;96254.94;5013851;28;20034;-53
2023/10/25 07:02:51;;;;;;;7.23;5.90;;;10.10;99.90;;;11.62;68.17;96249.84;5012948;28;20045;-50
2023/10/25 07:05:23;;;;;;;6.50;5.18;;;10.10;99.90;;;11.67;67.97;96252.72;5012056;28;20050;-53
2023/10/25 07:07:52;;;;;;;7.90;4.70;;;10.20;99.90;;;11.68;67.90;96248.22;5013864;28;20046;-52
2023/10/25 07:10:21;;;;;;;7.20;5.00;;;10.20;99.90;;;11.70;67.85;96246.16;5013539;28;20050;-51
2023/10/25 07:12:49;;;;;;;5.60;4.50;;;10.20;99.90;;;11.72;67.90;96241.44;5020775;28;20038;-51
2023/10/25 07:15:18;;;;;;;4.60;3.90;;;10.30;99.90;;;11.77;68.12;96245.16;5013787;28;20044;-51
2023/10/25 07:17:46;;;;;;;6.33;4.20;;;10.30;99.90;;;11.82;68.12;96242.72;5014104;28;20042;-49
2023/10/25 07:20:14;;;;;;;5.20;4.33;;;10.40;99.90;;;11.83;67.88;96235.53;5020089;28;20462;-49
2023/10/25 07:22:42;;;;;;;6.20;4.23;;;10.40;99.90;;;11.83;68.27;96235.53;5013813;28;20041;-48
2023/10/25 07:25:09;;;;;;;4.63;3.90;;;10.50;99.90;;;11.87;68.20;96231.44;5013000;28;20514;-49
2023/10/25 07:27:37;;;;;;;6.67;4.10;;;10.60;99.90;;;11.95;68.24;96238.44;5005777;28;20391;-53
2023/10/25 07:30:06;;;;;;;5.20;3.67;;;10.60;99.90;;;12.00;68.36;96238.66;5013141;28;20049;-52
2023/10/25 07:32:35;;;;;;;8.73;4.05;;;10.70;99.90;;;12.05;68.49;96232.69;5020376;28;20056;-51
2023/10/25 07:35:04;;;;;;;4.97;3.75;;;10.70;99.90;;;12.09;68.23;96229.41;5012467;28;20042;-53
2023/10/25 07:37:32;;;;;;;4.25;3.67;;;10.70;99.90;;;12.10;68.32;96227.59;5013299;28;20053;-49
2023/10/25 07:39:59;;;;;;;4.80;3.00;;;10.70;99.90;;;12.09;68.26;96229.41;5012794;28;20045;-52
2023/10/25 07:42:27;;;;;;;4.05;3.10;;;10.70;99.90;;;12.10;68.17;96223.06;5013238;28;20417;-47
2023/10/25 07:44:55;;;;;;;4.70;3.40;;;10.80;99.90;;;12.12;68.37;96221.00;5013305;28;20053;-53
2023/10/25 07:47:23;;;;;;;6.00;3.47;;;10.80;99.90;;;12.18;68.00;96216.69;5012888;28;20497;-52
2023/10/25 07:49:51;;;;;;;7.13;3.45;;;10.80;99.90;;;12.24;68.17;96209.72;5011664;28;20061;-51
2023/10/25 07:52:18;;;;;;;4.97;3.65;;;10.80;99.90;;;12.28;68.11;96213.59;5012983;28;20046;-50
2023/10/25 07:54:46;;;;;;;5.80;3.70;;;10.90;99.90;;;12.32;68.14;96210.31;5013287;28;20221;-54
2023/10/25 07:57:14;;;;;;;4.90;3.53;;;10.90;99.90;;;12.41;68.18;96201.06;5012942;28;20048;-52
2023/10/25 08:00:02;;;;;;;4.45;3.55;;;11.00;99.90;;;12.49;67.98;96199.22;5012905;28;20046;-51
2023/10/25 08:02:38;;;;;;;4.50;3.53;;;11.10;99.90;;;12.58;68.13;96195.28;5020109;28;20050;-50
2023/10/25 08:05:07;;;;;;;5.07;3.30;;;11.20;99.90;;;12.67;67.96;96196.69;5012998;28;20046;-52
2023/10/25 08:07:37;;;;;;;7.53;4.60;;;11.30;99.90;;;12.76;68.06;96194.63;5012719;28;20433;-48
2023/10/25 08:10:06;;;;;;;4.03;3.05;;;11.30;99.90;;;12.86;67.97;96194.19;5012271;28;20049;-53
2023/10/25 08:12:35;;;;;;;7.78;3.47;;;11.50;99.90;;;12.95;68.08;96188.41;5012325;28;20058;-52
2023/10/25 08:15:05;;;;;;;4.15;3.20;;;11.60;99.90;;;13.04;67.77;96185.47;5012978;28;20049;-51
2023/10/25 08:17:33;;;;;;;4.00;3.00;;;11.70;99.90;;;13.07;67.83;96190.41;5012497;28;20415;-51
2023/10/25 08:20:01;;;;;;;4.50;3.30;;;11.80;99.90;;;13.11;67.77;96183.59;5010398;28;20041;-50
2023/10/25 08:22:29;;;;;;;4.47;3.20;;;11.90;99.90;;;13.17;67.68;96180.88;5012314;28;20497;-50
2023/10/25 08:24:57;;;;;;;4.80;3.08;;;11.90;99.90;;;13.25;67.57;96177.16;5012655;28;20053;-52
2023/10/25 08:27:24;;;;;;;5.60;3.15;;;11.90;99.90;;;13.31;67.47;96178.19;5012523;28;20046;-50
2023/10/25 08:29:52;;;;;;;4.78;2.95;;;12.00;99.90;;;13.36;67.41;96179.19;5012242;28;20049;-52
2023/10/25 08:32:20;;;;;;;6.68;3.75;;;12.00;99.90;;;13.43;67.27;96172.97;5012266;28;20069;-50
2023/10/25 08:34:47;;;;;;;12.63;10.13;;;12.10;99.90;;;13.44;67.26;96174.63;5012118;28;20049;-51
2023/10/25 08:37:15;;;;;;;4.88;2.58;;;12.10;99.50;;;13.48;67.03;96168.63;5012593;28;20049;-53
2023/10/25 08:39:43;;;;;;;4.28;2.75;;;12.20;99.20;;;13.50;66.92;96161.19;5004076;28;20049;-50
2023/10/25 08:42:12;;;;;;;3.85;3.45;;;12.20;98.30;;;13.55;67.05;96164.06;5012298;28;20050;-53
2023/10/25 08:44:42;;;;;;;4.97;3.30;;;12.20;98.40;;;13.62;66.79;96158.66;5011892;28;20046;-52
2023/10/25 08:47:11;;;;;;;3.70;3.25;;;12.30;97.60;;;13.64;66.75;96161.13;5012155;28;20053;-50
2023/10/25 08:49:39;;;;;;;5.55;3.08;;;12.40;98.00;;;13.67;66.88;96156.16;5011691;28;20057;-52
2023/10/25 08:52:07;;;;;;;3.70;3.00;;;12.40;98.20;;;13.73;66.80;96159.81;5011859;28;20529;-51
2023/10/25 08:54:36;;;;;;;4.00;2.80;;;12.40;98.00;;;13.79;66.37;96142.91;5011727;28;20046;-51
2023/10/25 08:57:05;;;;;;;4.25;2.60;;;12.50;98.10;;;13.82;66.67;96146.97;5012026;28;20045;-54
2023/10/25 08:59:45;;;;;;;4.03;2.53;;;12.50;97.50;;;13.83;66.34;96138.75;5011688;28;20042;-49
2023/10/25 09:02:14;;;;;;;4.25;2.83;;;12.50;97.10;;;13.87;66.40;96147.97;5019355;28;20053;-49
2023/10/25 09:04:58;;;;;;;4.28;2.50;;;12.50;97.00;;;13.88;66.22;96136.25;5011977;28;20037;-53
2023/10/25 09:07:31;;;;;;;5.32;2.33;;;12.60;96.20;;;13.89;66.23;96145.09;5010554;28;20501;-51
2023/10/25 09:09:59;;;;;;;2.50;1.75;;;12.50;96.20;;;13.85;65.91;96139.34;5011445;28;20046;-51
2023/10/25 09:12:27;;;;;;;3.63;2.95;;;12.50;95.60;;;13.84;65.96;96143.06;5011451;28;20050;-53
2023/10/25 09:14:54;;;;;;;2.83;2.25;;;12.50;95.90;;;13.86;65.91;96134.81;5011875;28;20042;-50
2023/10/25 09:17:22;;;;;;;2.88;2.40;;;12.60;95.80;;;13.86;65.90;96132.97;5011566;28;20042;-54
2023/10/25 09:19:51;;;;;;;2.58;1.90;;;12.50;95.10;;;13.85;65.64;96125.16;5011233;28;20403;-51
2023/10/25 09:22:30;;;;;;;2.45;2.10;;;12.50;95.20;;;13.83;65.53;96128.03;5011665;28;20041;-51
2023/10/25 09:25:02;;;;;;;3.30;2.55;;;12.50;94.90;;;13.86;65.58;96119.59;5004788;28;20112;-50
2023/10/25 09:27:32;;;;;;;2.38;2.08;;;12.50;95.70;;;13.86;65.63;96116.06;5011727;28;20446;-50
2023/10/25 09:30:15;;;;;;;3.30;2.75;;;12.50;96.30;;;13.85;65.73;96117.13;5011099;28;20490;-51
2023/10/25 09:32:46;;;;;;;3.67;2.17;;;12.50;96.00;;;13.83;65.71;96114.66;5011418;28;20418;-51
2023/10/25 09:35:14;;;;;;;3.33;2.30;;;12.50;96.50;;;13.83;65.66;96114.66;5013733;28;20046;-53
2023/10/25 09:37:42;;;;;;;2.47;1.92;;;12.50;96.90;;;13.83;65.93;96108.50;5017461;28;20346;-50
2023/10/25 09:40:11;;;;;;;3.45;2.17;;;12.50;97.20;;;13.85;65.93;96103.75;5010123;28;20041;-53
2023/10/25 09:42:44;;;;;;;4.15;2.40;;;12.50;97.80;;;13.87;66.08;96094.47;5010913;28;20057;-53
2023/10/25 09:45:14;;;;;;;3.55;2.25;;;12.50;97.80;;;13.88;66.12;96095.28;5003147;28;20073;-53
2023/10/25 09:47:46;;;;;;;4.03;2.97;;;12.50;98.30;;;13.89;65.96;96086.22;5012591;28;20046;-49
2023/10/25 09:50:44;;;;;;;4.80;3.05;;;12.50;97.70;;;13.86;66.06;96079.47;5018057;28;20705;-50
2023/10/25 09:53:25;;;;;;;4.20;3.05;;;12.50;97.70;;;13.88;65.77;96082.75;5017254;28;20049;-51
2023/10/25 09:56:03;;;;;;;3.60;2.75;;;12.50;97.30;;;13.82;65.88;96072.91;5015523;28;20493;-48
2023/10/25 09:58:35;;;;;;;4.50;2.50;;;12.40;97.20;;;13.76;65.94;96069.28;5014696;28;20042;-50
2023/10/25 10:01:03;;;;;;;5.57;2.80;;;12.50;97.30;;;13.75;65.86;96064.13;5013710;28;20053;-49
2023/10/25 10:03:57;;;;;;;3.42;2.95;;;12.40;97.50;;;13.75;65.96;96061.47;5014660;28;20054;-49
2023/10/25 10:06:48;;;;;;;3.55;2.70;;;12.50;96.80;;;13.78;66.07;96063.69;5014942;28;20056;-53
2023/10/25 10:09:48;;;;;;;4.15;2.90;;;12.50;96.80;;;13.81;66.06;96065.94;5028815;28;20061;-51
2023/10/25 10:12:15;;;;;;;3.53;2.92;;;12.60;96.80;;;13.86;66.24;96058.06;5009311;28;20052;-52
2023/10/25 10:14:43;;;;;;;4.47;3.30;;;12.60;97.80;;;13.93;66.19;96044.63;5014612;28;20449;-48
2023/10/25 10:17:14;;;;;;;3.90;2.95;;;12.60;97.40;;;13.96;66.19;96039.66;5014665;28;20044;-50
2023/10/25 10:19:49;;;;;;;3.80;3.40;;;12.60;97.60;;;13.97;66.09;96027.88;5014154;28;20046;-49
2023/10/25 10:22:18;;;;;;;4.68;2.88;;;12.70;97.30;;;14.00;66.07;96023.97;5014830;28;20057;-51
2023/10/25 10:24:57;;;;;;;4.00;3.17;;;12.70;96.50;;;14.01;65.98;96027.47;5012985;28;20050;-49
2023/10/25 10:27:54;;;;;;;4.38;2.67;;;12.70;97.00;;;14.04;65.81;96024.34;5014592;28;20049;-52
2023/10/25 10:30:34;;;;;;;5.63;2.83;;;12.80;96.60;;;14.03;66.02;96020.03;5014175;28;20409;-53